Time;durP1;ratioP1;P1;durP2;ratioP2;P2;SDS_P1;SDS_P2;PMS_P1;PMS_P2;Temp;Humidity;BMP_temperature;BMP_pressure;BME280_temperature;BME280_humidity;BME280_pressure;Samples;Min_cycle;Max_cycle;Signal;HPM_P1;HPM_P2
2021/04/03 00:02:09;;;;;;;55.4;40.4;;;;;;;3.75;100;98299.44;;;;
2021/04/03 00:12:07;;;;;;;45.1;36.2;;;;;;;3.74;100;98301.3;;;;
2021/04/03 00:22:04;;;;;;;42.1;36.9;;;;;;;3.73;100;98293.56;;;;
2021/04/03 00:32:02;;;;;;;49.3;38.2;;;;;;;3.59;100;98293.33;;;;
2021/04/03 00:42:00;;;;;;;51.8;41.3;;;;;;;3.31;100;98262.73;;;;
2021/04/03 00:51:58;;;;;;;53;37;;;;;;;3.1;100;98268.33;;;;
2021/04/03 01:01:56;;;;;;;50.4;40.2;;;;;;;2.97;100;98238.53;;;;
2021/04/03 01:12:01;;;;;;;56.5;42.4;;;;;;;2.77;100;98227.89;;;;
2021/04/03 01:22:17;;;;;;;45.8;37.2;;;;;;;2.63;100;98237.45;;;;
2021/04/03 01:31:52;;;;;;;43.2;35.5;;;;;;;2.61;100;98236.9;;;;
2021/04/03 01:41:46;;;;;;;46.6;39.8;;;;;;;2.61;100;98233.44;;;;
2021/04/03 01:51:44;;;;;;;48.8;35;;;;;;;2.63;100;98245.43;;;;
2021/04/03 02:01:42;;;;;;;41.6;33.5;;;;;;;2.78;100;98237.45;;;;
2021/04/03 02:21:37;;;;;;;51.1;33.9;;;;;;;2.83;100;98229.48;;;;
2021/04/03 02:31:35;;;;;;;44.6;33.2;;;;;;;2.65;100;98234.51;;;;
2021/04/03 02:41:32;;;;;;;42.9;31.3;;;;;;;2.73;100;98215.38;;;;
2021/04/03 02:51:30;;;;;;;46.3;32.9;;;;;;;2.68;100;98210.03;;;;
2021/04/03 03:01:28;;;;;;;41.2;34.3;;;;;;;2.7;100;98213.24;;;;
2021/04/03 03:11:26;;;;;;;32.3;28;;;;;;;2.71;100;98212.19;;;;
2021/04/03 03:21:23;;;;;;;34.8;29.2;;;;;;;2.85;100;98215.89;;;;
2021/04/03 03:31:21;;;;;;;37.1;31.6;;;;;;;2.8;100;98205.27;;;;
2021/04/03 03:41:21;;;;;;;45.8;33.4;;;;;;;2.77;100;98190.63;;;;
2021/04/03 03:51:17;;;;;;;42.5;30.2;;;;;;;2.84;100;98193.83;;;;
2021/04/03 04:41:06;;;;;;;49.3;38.3;;;;;;;2.76;100;98173.06;;;;
2021/04/03 04:51:03;;;;;;;49.6;38.9;;;;;;;2.82;100;98177.31;;;;
2021/04/03 05:01:01;;;;;;;54.6;38.2;;;;;;;2.89;100;98182.36;;;;
2021/04/03 05:10:59;;;;;;;46.7;38.8;;;;;;;3.11;100;98211.36;;;;
2021/04/03 05:20:57;;;;;;;56.7;40.9;;;;;;;3.2;100;98223.86;;;;
2021/04/03 05:30:55;;;;;;;42;34.5;;;;;;;3.19;100;98245.44;;;;
2021/04/03 05:40:53;;;;;;;43.7;32.9;;;;;;;3.43;100;98262.45;;;;
2021/04/03 05:50:50;;;;;;;53.1;33.2;;;;;;;3.8;100;98270.89;;;;
2021/04/03 06:00:48;;;;;;;43.8;33;;;;;;;4.5;100;98277;;;;
2021/04/03 06:10:46;;;;;;;33.1;28.8;;;;;;;4.68;100;98284.38;;;;
2021/04/03 06:20:44;;;;;;;38.7;26.6;;;;;;;4.67;100;98298.78;;;;
2021/04/03 06:30:42;;;;;;;35.5;27.4;;;;;;;4.62;100;98311.38;;;;
2021/04/03 06:40:40;;;;;;;31.3;28.1;;;;;;;4.28;100;98312.05;;;;
2021/04/03 06:50:38;;;;;;;30;26.2;;;;;;;4.45;100;98309.83;;;;
2021/04/03 07:00:36;;;;;;;29.1;26;;;;;;;4.52;100;98314.87;;;;
2021/04/03 07:10:34;;;;;;;31.1;26.6;;;;;;;4.62;100;98325.48;;;;
2021/04/03 07:20:34;;;;;;;33.3;29.7;;;;;;;4.31;100;98340.84;;;;
2021/04/03 07:30:42;;;;;;;52.3;33.6;;;;;;;4.31;100;98353.38;;;;
2021/04/03 07:40:39;;;;;;;36.5;29.4;;;;;;;3.9;100;98363.36;;;;
2021/04/03 07:50:50;;;;;;;33.8;25.6;;;;;;;3.78;100;98387.65;;;;
2021/04/03 08:00:25;;;;;;;35.7;25;;;;;;;3.91;100;98397.76;;;;
2021/04/03 08:10:23;;;;;;;32;18.4;;;;;;;4.21;100;98396.09;;;;
2021/04/03 08:20:22;;;;;;;24.8;22.2;;;;;;;4.3;100;98405.95;;;;
2021/04/03 08:30:23;;;;;;;26.5;22.8;;;;;;;4.3;100;98405.16;;;;
2021/04/03 08:40:15;;;;;;;24.6;20.9;;;;;;;4.76;100;98411.91;;;;
2021/04/03 08:50:13;;;;;;;26.2;21.6;;;;;;;4.93;100;98412.36;;;;
2021/04/03 09:00:11;;;;;;;24;17.6;;;;;;;5.35;100;98419.86;;;;
2021/04/03 09:10:10;;;;;;;14.5;11.4;;;;;;;6.12;100;98425.42;;;;
2021/04/03 09:20:08;;;;;;;10.4;7.5;;;;;;;6.55;99.58984;98414.55;;;;
2021/04/03 09:30:06;;;;;;;12.3;9.7;;;;;;;6.18;93.79785;98422.42;;;;
2021/04/03 09:40:04;;;;;;;11.2;9.5;;;;;;;6.21;93.14746;98432.58;;;;
2021/04/03 09:50:02;;;;;;;13.4;9.2;;;;;;;5.76;94.26172;98433.72;;;;
2021/04/03 10:00:01;;;;;;;14.3;8.7;;;;;;;5.54;96.55273;98444.06;;;;
2021/04/03 10:09:59;;;;;;;15.2;10.4;;;;;;;4.98;100;98455.08;;;;
2021/04/03 10:19:57;;;;;;;11.8;7.3;;;;;;;5.96;100;98444.31;;;;
2021/04/03 10:29:55;;;;;;;12.1;9.2;;;;;;;7.03;100;98455.48;;;;
2021/04/03 10:39:53;;;;;;;22.5;13.5;;;;;;;7.77;96.52441;98448.55;;;;
2021/04/03 10:49:52;;;;;;;21.7;14.7;;;;;;;8.55;93.52734;98447.75;;;;
2021/04/03 10:59:50;;;;;;;18.7;15;;;;;;;7.81;92.6875;98435.34;;;;
2021/04/03 11:09:49;;;;;;;19.6;15;;;;;;;7.63;91.12109;98445;;;;
2021/04/03 11:19:47;;;;;;;18.3;14;;;;;;;7.39;89.84375;98447.74;;;;
2021/04/03 11:29:45;;;;;;;9;6.5;;;;;;;4.39;100;98507.56;;;;
2021/04/03 11:39:45;;;;;;;11.6;7.5;;;;;;;3.34;100;98503.76;;;;
2021/04/03 11:49:41;;;;;;;10.9;8.8;;;;;;;3.46;100;98499.01;;;;
2021/04/03 11:59:39;;;;;;;21.6;11.1;;;;;;;3.62;100;98505.95;;;;
2021/04/03 12:09:37;;;;;;;14.1;12.6;;;;;;;2.85;100;98522.74;;;;
2021/04/03 12:19:35;;;;;;;9.6;6.1;;;;;;;3.17;100;98530.61;;;;
2021/04/03 12:29:32;;;;;;;6.2;3;;;;;;;4.09;100;98536.94;;;;
2021/04/03 12:39:30;;;;;;;4.8;2.8;;;;;;;4.51;100;98540.12;;;;
2021/04/03 12:49:28;;;;;;;3.3;2.2;;;;;;;4.77;100;98555;;;;
2021/04/03 12:59:26;;;;;;;5.4;3.1;;;;;;;4.85;97.69434;98551.8;;;;
2021/04/03 13:09:24;;;;;;;6;4;;;;;;;5.56;94.4834;98556.84;;;;
2021/04/03 13:19:22;;;;;;;9.1;6;;;;;;;6.13;90.44043;98545.56;;;;
2021/04/03 13:29:22;;;;;;;10.2;5.7;;;;;;;6.59;86.35938;98552.1;;;;
2021/04/03 13:39:18;;;;;;;10.1;6.6;;;;;;;6.91;83.00586;98556.88;;;;
2021/04/03 13:49:16;;;;;;;10.5;7.4;;;;;;;7.91;80.36523;98545.95;;;;
2021/04/03 13:59:14;;;;;;;10.6;8;;;;;;;8.15;74.40625;98550.45;;;;
2021/04/03 14:09:13;;;;;;;9.5;7.3;;;;;;;7.46;74.83789;98543.93;;;;
2021/04/03 14:19:11;;;;;;;9.2;6.8;;;;;;;7.29;76.08691;98576.55;;;;
2021/04/03 14:29:09;;;;;;;8.6;6.2;;;;;;;7.22;74.37207;98567.28;;;;
2021/04/03 14:39:08;;;;;;;10.8;7.7;;;;;;;8.06;72.06836;98561.05;;;;
2021/04/03 14:49:06;;;;;;;11.2;8;;;;;;;7.02;72.53516;98558.38;;;;
2021/04/03 14:59:04;;;;;;;14.5;10.2;;;;;;;6.58;72.85156;98563.11;;;;
2021/04/03 15:09:02;;;;;;;10.6;7.1;;;;;;;6.73;71.1416;98557.63;;;;
2021/04/03 15:19:00;;;;;;;21.2;13.5;;;;;;;7.24;66.60254;98552.51;;;;
2021/04/03 15:28:59;;;;;;;14.3;5.8;;;;;;;8.76;61.02637;98561;;;;
2021/04/03 15:38:57;;;;;;;16.6;10.9;;;;;;;7.52;64.58887;98562.34;;;;
2021/04/03 15:48:55;;;;;;;8.1;5.7;;;;;;;6.66;68.35156;98564.39;;;;
2021/04/03 15:58:53;;;;;;;39;28.5;;;;;;;6.33;70.94141;98568.67;;;;
2021/04/03 16:08:52;;;;;;;16.6;11.6;;;;;;;6.22;71.95313;98572.5;;;;
2021/04/03 16:18:50;;;;;;;28.3;23.5;;;;;;;6.24;73.74512;98581.07;;;;
2021/04/03 16:28:48;;;;;;;17.4;5.8;;;;;;;6.08;76.76953;98615.95;;;;
2021/04/03 16:38:46;;;;;;;6.1;3.8;;;;;;;4.66;82.26465;98619.34;;;;
2021/04/03 16:48:44;;;;;;;10.7;8.2;;;;;;;4.64;88.35645;98603.61;;;;
2021/04/03 16:58:42;;;;;;;10.6;8.8;;;;;;;4.26;91.23535;98639.63;;;;
2021/04/03 17:08:40;;;;;;;9.3;7.4;;;;;;;4.22;93.20703;98653.75;;;;
2021/04/03 17:18:38;;;;;;;13.6;8.9;;;;;;;3.87;96.31348;98663.27;;;;
2021/04/03 17:28:37;;;;;;;12.8;9.9;;;;;;;3.41;99.59668;98674.8;;;;
2021/04/03 17:38:34;;;;;;;16;13.1;;;;;;;3.08;100;98670.63;;;;
2021/04/03 17:48:31;;;;;;;19.5;14.4;;;;;;;2.62;100;98680.13;;;;
2021/04/03 17:58:29;;;;;;;16.6;11.2;;;;;;;2.18;100;98692.77;;;;
2021/04/03 18:08:27;;;;;;;22.1;10.6;;;;;;;1.92;100;98709.47;;;;
2021/04/03 18:18:24;;;;;;;17;12.4;;;;;;;1.67;100;98731.22;;;;
2021/04/03 18:28:22;;;;;;;20.2;14.4;;;;;;;1.48;100;98724.6;;;;
2021/04/03 18:38:22;;;;;;;17.5;12.9;;;;;;;1.43;100;98737.8;;;;
2021/04/03 18:48:17;;;;;;;16.1;10.1;;;;;;;1.4;100;98735.63;;;;
2021/04/03 18:58:15;;;;;;;25.3;15.2;;;;;;;1.37;100;98750.2;;;;
2021/04/03 19:08:12;;;;;;;33.3;23;;;;;;;1.12;100;98773.71;;;;
2021/04/03 19:18:10;;;;;;;27.3;18.9;;;;;;;0.8;100;98770.8;;;;
2021/04/03 19:28:08;;;;;;;39.2;26.4;;;;;;;0.76;100;98777.66;;;;
2021/04/03 19:38:05;;;;;;;25.7;16.7;;;;;;;0.9;100;98781.58;;;;
2021/04/03 19:48:02;;;;;;;26.3;19.3;;;;;;;0.99;100;98795.27;;;;
2021/04/03 19:58:00;;;;;;;32.3;24.9;;;;;;;1.08;100;98803.65;;;;
2021/04/03 20:07:57;;;;;;;21.9;15.9;;;;;;;1.08;100;98819.58;;;;
2021/04/03 20:17:55;;;;;;;24.8;18.4;;;;;;;1.18;100;98833.01;;;;
2021/04/03 20:27:53;;;;;;;22.8;19.9;;;;;;;1.38;100;98838.64;;;;
2021/04/03 20:37:50;;;;;;;60.6;38.4;;;;;;;1.29;100;98845.38;;;;
2021/04/03 20:47:47;;;;;;;53.1;38.1;;;;;;;1.18;100;98856.9;;;;
2021/04/03 20:57:45;;;;;;;29.2;22.2;;;;;;;1.42;100;98863.67;;;;
2021/04/03 21:07:42;;;;;;;33.4;23.6;;;;;;;1.66;100;98875.73;;;;
2021/04/03 21:17:40;;;;;;;31.3;25.1;;;;;;;1.48;100;98870.66;;;;
2021/04/03 21:27:38;;;;;;;31.4;23.6;;;;;;;1.42;100;98866.33;;;;
2021/04/03 21:37:35;;;;;;;38.3;27.6;;;;;;;1.43;100;98870.56;;;;
2021/04/03 21:47:33;;;;;;;35.4;25.4;;;;;;;1.4;100;98874.52;;;;
2021/04/03 21:57:30;;;;;;;37.5;27.8;;;;;;;1.34;100;98887.95;;;;
2021/04/03 22:07:28;;;;;;;27.4;23.2;;;;;;;1.19;100;98888.5;;;;
2021/04/03 22:17:25;;;;;;;33.1;21.9;;;;;;;1.04;100;98903.36;;;;
2021/04/03 22:27:23;;;;;;;30.3;24.9;;;;;;;0.95;100;98910.88;;;;
2021/04/03 22:37:23;;;;;;;38.6;27.2;;;;;;;0.95;100;98911.69;;;;
2021/04/03 22:47:19;;;;;;;34;24.3;;;;;;;0.99;100;98915.49;;;;
2021/04/03 22:57:16;;;;;;;30.4;23.2;;;;;;;1.1;100;98920.98;;;;
2021/04/03 23:07:13;;;;;;;38.2;27.3;;;;;;;1.13;100;98921.31;;;;
2021/04/03 23:17:11;;;;;;;28.4;25.4;;;;;;;1.17;100;98929.6;;;;
2021/04/03 23:27:08;;;;;;;27.7;23;;;;;;;1.32;100;98927.23;;;;
2021/04/03 23:37:06;;;;;;;33;25.5;;;;;;;1.34;100;98922.47;;;;
2021/04/03 23:47:04;;;;;;;29;19.3;;;;;;;1.4;100;98921.5;;;;
2021/04/03 23:57:01;;;;;;;25;18.7;;;;;;;1.48;100;98918.47;;;;
